sensor_id;sensor_type;location;lat;lon;timestamp;P1;durP1;ratioP1;P2;durP2;ratioP2
68921;SDS011;55959;51.244;5.724;2022-10-31T00:00:21;9.60;;;7.53;;
68921;SDS011;55959;51.244;5.724;2022-10-31T00:02:48;10.93;;;8.67;;
68921;SDS011;55959;51.244;5.724;2022-10-31T00:05:13;8.97;;;7.50;;
68921;SDS011;55959;51.244;5.724;2022-10-31T00:07:39;9.50;;;8.07;;
68921;SDS011;55959;51.244;5.724;2022-10-31T00:10:05;9.03;;;7.60;;
68921;SDS011;55959;51.244;5.724;2022-10-31T00:12:32;10.47;;;7.87;;
68921;SDS011;55959;51.244;5.724;2022-10-31T00:14:58;11.63;;;8.57;;
68921;SDS011;55959;51.244;5.724;2022-10-31T00:17:24;12.67;;;8.70;;
68921;SDS011;55959;51.244;5.724;2022-10-31T00:19:50;10.90;;;8.37;;
68921;SDS011;55959;51.244;5.724;2022-10-31T00:22:16;9.77;;;8.40;;
68921;SDS011;55959;51.244;5.724;2022-10-31T00:24:41;9.97;;;8.53;;
68921;SDS011;55959;51.244;5.724;2022-10-31T00:27:07;11.03;;;7.97;;
68921;SDS011;55959;51.244;5.724;2022-10-31T00:29:33;11.03;;;8.03;;
68921;SDS011;55959;51.244;5.724;2022-10-31T00:31:59;10.13;;;9.00;;
68921;SDS011;55959;51.244;5.724;2022-10-31T00:34:24;9.43;;;8.27;;
68921;SDS011;55959;51.244;5.724;2022-10-31T00:36:50;8.97;;;7.63;;
68921;SDS011;55959;51.244;5.724;2022-10-31T00:39:16;9.07;;;8.03;;
68921;SDS011;55959;51.244;5.724;2022-10-31T00:41:41;8.93;;;7.80;;
68921;SDS011;55959;51.244;5.724;2022-10-31T00:44:07;11.27;;;7.73;;
68921;SDS011;55959;51.244;5.724;2022-10-31T00:46:33;8.87;;;7.37;;
68921;SDS011;55959;51.244;5.724;2022-10-31T00:48:58;8.70;;;7.47;;
68921;SDS011;55959;51.244;5.724;2022-10-31T00:51:24;10.33;;;8.13;;
68921;SDS011;55959;51.244;5.724;2022-10-31T00:53:50;8.70;;;7.83;;
68921;SDS011;55959;51.244;5.724;2022-10-31T00:56:15;8.97;;;7.13;;
68921;SDS011;55959;51.244;5.724;2022-10-31T00:58:41;8.50;;;7.63;;
68921;SDS011;55959;51.244;5.724;2022-10-31T01:01:07;10.37;;;8.10;;
68921;SDS011;55959;51.244;5.724;2022-10-31T01:03:34;11.20;;;7.67;;
68921;SDS011;55959;51.244;5.724;2022-10-31T01:06:07;10.13;;;7.60;;
68921;SDS011;55959;51.244;5.724;2022-10-31T01:08:36;8.90;;;8.00;;
68921;SDS011;55959;51.244;5.724;2022-10-31T01:13:32;9.53;;;7.87;;
68921;SDS011;55959;51.244;5.724;2022-10-31T01:15:59;10.33;;;8.03;;
68921;SDS011;55959;51.244;5.724;2022-10-31T01:18:26;8.90;;;7.77;;
68921;SDS011;55959;51.244;5.724;2022-10-31T01:20:56;11.90;;;7.53;;
68921;SDS011;55959;51.244;5.724;2022-10-31T01:23:28;8.73;;;7.83;;
68921;SDS011;55959;51.244;5.724;2022-10-31T01:26:01;10.40;;;7.60;;
68921;SDS011;55959;51.244;5.724;2022-10-31T01:28:34;12.10;;;8.93;;
68921;SDS011;55959;51.244;5.724;2022-10-31T01:31:03;10.30;;;8.20;;
68921;SDS011;55959;51.244;5.724;2022-10-31T01:33:31;8.87;;;7.97;;
68921;SDS011;55959;51.244;5.724;2022-10-31T01:35:58;8.87;;;7.93;;
68921;SDS011;55959;51.244;5.724;2022-10-31T01:38:23;8.70;;;7.80;;
68921;SDS011;55959;51.244;5.724;2022-10-31T01:40:50;8.43;;;7.60;;
68921;SDS011;55959;51.244;5.724;2022-10-31T01:43:16;8.90;;;8.00;;
68921;SDS011;55959;51.244;5.724;2022-10-31T01:45:42;10.83;;;8.57;;
68921;SDS011;55959;51.244;5.724;2022-10-31T01:48:16;10.23;;;9.23;;
68921;SDS011;55959;51.244;5.724;2022-10-31T01:50:45;10.27;;;8.43;;
68921;SDS011;55959;51.244;5.724;2022-10-31T01:53:14;12.70;;;8.43;;
68921;SDS011;55959;51.244;5.724;2022-10-31T01:55:42;9.17;;;8.20;;
68921;SDS011;55959;51.244;5.724;2022-10-31T01:58:14;10.03;;;7.90;;
68921;SDS011;55959;51.244;5.724;2022-10-31T02:00:45;9.57;;;8.43;;
68921;SDS011;55959;51.244;5.724;2022-10-31T02:03:14;10.43;;;7.97;;
68921;SDS011;55959;51.244;5.724;2022-10-31T02:05:40;10.47;;;8.57;;
68921;SDS011;55959;51.244;5.724;2022-10-31T02:08:16;11.00;;;9.03;;
68921;SDS011;55959;51.244;5.724;2022-10-31T02:10:49;12.53;;;9.00;;
68921;SDS011;55959;51.244;5.724;2022-10-31T02:13:14;11.00;;;8.40;;
68921;SDS011;55959;51.244;5.724;2022-10-31T02:15:41;9.80;;;8.13;;
68921;SDS011;55959;51.244;5.724;2022-10-31T02:18:09;9.07;;;7.53;;
68921;SDS011;55959;51.244;5.724;2022-10-31T02:26:41;9.83;;;7.90;;
68921;SDS011;55959;51.244;5.724;2022-10-31T02:35:13;11.03;;;8.10;;
68921;SDS011;55959;51.244;5.724;2022-10-31T02:38:02;9.83;;;7.57;;
68921;SDS011;55959;51.244;5.724;2022-10-31T02:40:49;12.43;;;8.23;;
68921;SDS011;55959;51.244;5.724;2022-10-31T02:44:10;11.00;;;8.63;;
68921;SDS011;55959;51.244;5.724;2022-10-31T02:47:00;9.20;;;7.77;;
68921;SDS011;55959;51.244;5.724;2022-10-31T02:52:26;8.43;;;7.47;;
68921;SDS011;55959;51.244;5.724;2022-10-31T02:54:54;11.03;;;8.03;;
68921;SDS011;55959;51.244;5.724;2022-10-31T02:57:22;10.80;;;8.27;;
68921;SDS011;55959;51.244;5.724;2022-10-31T02:59:55;8.73;;;7.67;;
68921;SDS011;55959;51.244;5.724;2022-10-31T03:11:05;9.50;;;8.37;;
68921;SDS011;55959;51.244;5.724;2022-10-31T03:13:41;10.87;;;8.77;;
68921;SDS011;55959;51.244;5.724;2022-10-31T03:16:23;12.23;;;10.00;;
68921;SDS011;55959;51.244;5.724;2022-10-31T03:19:28;10.73;;;9.27;;
68921;SDS011;55959;51.244;5.724;2022-10-31T03:24:32;9.97;;;8.20;;
68921;SDS011;55959;51.244;5.724;2022-10-31T03:27:02;11.83;;;8.67;;
68921;SDS011;55959;51.244;5.724;2022-10-31T03:29:30;10.50;;;8.10;;
68921;SDS011;55959;51.244;5.724;2022-10-31T03:32:01;10.03;;;8.00;;
68921;SDS011;55959;51.244;5.724;2022-10-31T03:34:32;9.10;;;8.13;;
68921;SDS011;55959;51.244;5.724;2022-10-31T03:37:03;8.90;;;8.00;;
68921;SDS011;55959;51.244;5.724;2022-10-31T03:39:33;9.17;;;7.97;;
68921;SDS011;55959;51.244;5.724;2022-10-31T03:42:05;9.80;;;8.23;;
68921;SDS011;55959;51.244;5.724;2022-10-31T03:44:35;8.87;;;8.00;;
68921;SDS011;55959;51.244;5.724;2022-10-31T03:47:03;10.20;;;8.47;;
68921;SDS011;55959;51.244;5.724;2022-10-31T03:49:29;12.33;;;9.97;;
68921;SDS011;55959;51.244;5.724;2022-10-31T03:54:51;10.77;;;9.67;;
68921;SDS011;55959;51.244;5.724;2022-10-31T03:59:54;11.27;;;9.17;;
68921;SDS011;55959;51.244;5.724;2022-10-31T04:02:34;15.63;;;10.23;;
68921;SDS011;55959;51.244;5.724;2022-10-31T04:05:04;10.27;;;8.80;;
68921;SDS011;55959;51.244;5.724;2022-10-31T04:07:32;11.20;;;8.50;;
68921;SDS011;55959;51.244;5.724;2022-10-31T04:10:04;10.93;;;9.00;;
68921;SDS011;55959;51.244;5.724;2022-10-31T04:12:33;12.43;;;9.03;;
68921;SDS011;55959;51.244;5.724;2022-10-31T04:15:01;13.10;;;9.50;;
68921;SDS011;55959;51.244;5.724;2022-10-31T04:17:31;11.80;;;9.60;;
68921;SDS011;55959;51.244;5.724;2022-10-31T04:20:02;12.33;;;9.47;;
68921;SDS011;55959;51.244;5.724;2022-10-31T04:22:29;9.77;;;8.67;;
68921;SDS011;55959;51.244;5.724;2022-10-31T04:24:54;10.83;;;8.80;;
68921;SDS011;55959;51.244;5.724;2022-10-31T04:27:20;10.83;;;9.33;;
68921;SDS011;55959;51.244;5.724;2022-10-31T04:29:46;10.73;;;8.90;;
68921;SDS011;55959;51.244;5.724;2022-10-31T04:32:13;9.40;;;8.50;;
68921;SDS011;55959;51.244;5.724;2022-10-31T04:34:40;8.67;;;7.80;;
68921;SDS011;55959;51.244;5.724;2022-10-31T04:37:05;9.77;;;8.70;;
68921;SDS011;55959;51.244;5.724;2022-10-31T04:39:32;10.87;;;8.77;;
68921;SDS011;55959;51.244;5.724;2022-10-31T04:41:58;10.13;;;8.67;;
68921;SDS011;55959;51.244;5.724;2022-10-31T04:44:23;11.87;;;8.50;;
68921;SDS011;55959;51.244;5.724;2022-10-31T04:46:49;10.13;;;8.13;;
68921;SDS011;55959;51.244;5.724;2022-10-31T04:49:15;10.00;;;8.87;;
68921;SDS011;55959;51.244;5.724;2022-10-31T04:51:40;9.83;;;7.97;;
68921;SDS011;55959;51.244;5.724;2022-10-31T04:54:06;9.97;;;8.20;;
68921;SDS011;55959;51.244;5.724;2022-10-31T04:56:32;8.73;;;7.83;;
68921;SDS011;55959;51.244;5.724;2022-10-31T04:58:58;8.70;;;7.80;;
68921;SDS011;55959;51.244;5.724;2022-10-31T05:01:23;8.87;;;7.40;;
68921;SDS011;55959;51.244;5.724;2022-10-31T05:03:49;12.20;;;9.63;;
68921;SDS011;55959;51.244;5.724;2022-10-31T05:06:15;10.70;;;8.57;;
68921;SDS011;55959;51.244;5.724;2022-10-31T05:08:41;10.17;;;9.17;;
68921;SDS011;55959;51.244;5.724;2022-10-31T05:11:07;10.80;;;8.80;;
68921;SDS011;55959;51.244;5.724;2022-10-31T05:13:32;9.17;;;8.27;;
68921;SDS011;55959;51.244;5.724;2022-10-31T05:15:58;8.67;;;7.77;;
68921;SDS011;55959;51.244;5.724;2022-10-31T05:18:24;8.70;;;7.80;;
68921;SDS011;55959;51.244;5.724;2022-10-31T05:20:50;9.30;;;7.93;;
68921;SDS011;55959;51.244;5.724;2022-10-31T05:23:15;8.23;;;7.27;;
68921;SDS011;55959;51.244;5.724;2022-10-31T05:25:41;10.03;;;8.17;;
68921;SDS011;55959;51.244;5.724;2022-10-31T05:28:07;7.30;;;6.60;;
68921;SDS011;55959;51.244;5.724;2022-10-31T05:30:33;10.20;;;6.90;;
68921;SDS011;55959;51.244;5.724;2022-10-31T05:33:00;7.70;;;6.90;;
68921;SDS011;55959;51.244;5.724;2022-10-31T05:35:27;8.27;;;7.07;;
68921;SDS011;55959;51.244;5.724;2022-10-31T05:37:56;8.80;;;7.57;;
68921;SDS011;55959;51.244;5.724;2022-10-31T05:40:23;8.40;;;7.50;;
68921;SDS011;55959;51.244;5.724;2022-10-31T05:42:53;7.97;;;7.07;;
68921;SDS011;55959;51.244;5.724;2022-10-31T05:45:21;9.70;;;7.43;;
68921;SDS011;55959;51.244;5.724;2022-10-31T05:47:54;8.63;;;7.53;;
68921;SDS011;55959;51.244;5.724;2022-10-31T05:50:22;10.47;;;8.70;;
68921;SDS011;55959;51.244;5.724;2022-10-31T05:55:23;10.13;;;8.70;;
68921;SDS011;55959;51.244;5.724;2022-10-31T05:57:50;10.53;;;9.20;;
68921;SDS011;55959;51.244;5.724;2022-10-31T06:00:17;9.30;;;7.90;;
68921;SDS011;55959;51.244;5.724;2022-10-31T06:02:44;10.67;;;8.43;;
68921;SDS011;55959;51.244;5.724;2022-10-31T06:05:09;10.67;;;9.20;;
68921;SDS011;55959;51.244;5.724;2022-10-31T06:07:36;11.70;;;9.20;;
68921;SDS011;55959;51.244;5.724;2022-10-31T06:10:03;9.30;;;8.40;;
68921;SDS011;55959;51.244;5.724;2022-10-31T06:12:31;9.53;;;7.93;;
68921;SDS011;55959;51.244;5.724;2022-10-31T06:15:02;8.03;;;6.80;;
68921;SDS011;55959;51.244;5.724;2022-10-31T06:17:30;9.00;;;6.57;;
68921;SDS011;55959;51.244;5.724;2022-10-31T06:19:56;8.33;;;6.27;;
68921;SDS011;55959;51.244;5.724;2022-10-31T06:22:22;7.63;;;6.87;;
68921;SDS011;55959;51.244;5.724;2022-10-31T06:24:47;7.30;;;5.63;;
68921;SDS011;55959;51.244;5.724;2022-10-31T06:27:13;7.03;;;5.70;;
68921;SDS011;55959;51.244;5.724;2022-10-31T06:29:39;7.63;;;6.40;;
68921;SDS011;55959;51.244;5.724;2022-10-31T06:32:05;10.73;;;6.47;;
68921;SDS011;55959;51.244;5.724;2022-10-31T06:34:30;7.33;;;6.23;;
68921;SDS011;55959;51.244;5.724;2022-10-31T06:36:56;9.50;;;7.37;;
68921;SDS011;55959;51.244;5.724;2022-10-31T06:39:22;9.37;;;6.80;;
68921;SDS011;55959;51.244;5.724;2022-10-31T06:41:47;9.67;;;7.53;;
68921;SDS011;55959;51.244;5.724;2022-10-31T06:44:13;6.83;;;6.07;;
68921;SDS011;55959;51.244;5.724;2022-10-31T06:46:39;8.67;;;6.63;;
68921;SDS011;55959;51.244;5.724;2022-10-31T06:49:05;9.40;;;6.97;;
68921;SDS011;55959;51.244;5.724;2022-10-31T06:51:30;9.03;;;7.50;;
68921;SDS011;55959;51.244;5.724;2022-10-31T06:53:56;8.70;;;7.80;;
68921;SDS011;55959;51.244;5.724;2022-10-31T06:56:22;8.63;;;7.47;;
68921;SDS011;55959;51.244;5.724;2022-10-31T06:58:47;9.13;;;7.10;;
68921;SDS011;55959;51.244;5.724;2022-10-31T07:01:13;8.27;;;7.37;;
68921;SDS011;55959;51.244;5.724;2022-10-31T07:03:39;8.27;;;7.10;;
68921;SDS011;55959;51.244;5.724;2022-10-31T07:06:04;7.60;;;6.67;;
68921;SDS011;55959;51.244;5.724;2022-10-31T07:08:30;10.20;;;7.20;;
68921;SDS011;55959;51.244;5.724;2022-10-31T07:10:57;7.53;;;6.70;;
68921;SDS011;55959;51.244;5.724;2022-10-31T07:13:23;7.97;;;7.17;;
68921;SDS011;55959;51.244;5.724;2022-10-31T07:15:53;7.33;;;6.63;;
68921;SDS011;55959;51.244;5.724;2022-10-31T07:18:24;8.30;;;6.43;;
68921;SDS011;55959;51.244;5.724;2022-10-31T07:20:51;8.37;;;7.43;;
68921;SDS011;55959;51.244;5.724;2022-10-31T07:23:17;7.30;;;6.60;;
68921;SDS011;55959;51.244;5.724;2022-10-31T07:25:43;9.60;;;7.17;;
68921;SDS011;55959;51.244;5.724;2022-10-31T07:28:09;7.50;;;6.80;;
68921;SDS011;55959;51.244;5.724;2022-10-31T07:30:36;9.43;;;7.63;;
68921;SDS011;55959;51.244;5.724;2022-10-31T07:33:03;10.80;;;8.13;;
68921;SDS011;55959;51.244;5.724;2022-10-31T07:35:29;8.90;;;8.07;;
68921;SDS011;55959;51.244;5.724;2022-10-31T07:37:55;9.77;;;8.73;;
68921;SDS011;55959;51.244;5.724;2022-10-31T07:40:22;9.03;;;8.13;;
68921;SDS011;55959;51.244;5.724;2022-10-31T07:42:49;11.53;;;9.53;;
68921;SDS011;55959;51.244;5.724;2022-10-31T07:45:20;11.90;;;9.97;;
68921;SDS011;55959;51.244;5.724;2022-10-31T07:47:47;10.87;;;9.33;;
68921;SDS011;55959;51.244;5.724;2022-10-31T07:50:23;12.90;;;9.37;;
68921;SDS011;55959;51.244;5.724;2022-10-31T07:55:32;12.93;;;8.90;;
68921;SDS011;55959;51.244;5.724;2022-10-31T07:57:59;9.27;;;8.17;;
68921;SDS011;55959;51.244;5.724;2022-10-31T08:00:28;11.53;;;10.30;;
68921;SDS011;55959;51.244;5.724;2022-10-31T08:02:59;10.57;;;9.53;;
68921;SDS011;55959;51.244;5.724;2022-10-31T08:05:31;10.90;;;9.53;;
68921;SDS011;55959;51.244;5.724;2022-10-31T08:07:58;11.17;;;9.37;;
68921;SDS011;55959;51.244;5.724;2022-10-31T08:10:24;10.67;;;8.97;;
68921;SDS011;55959;51.244;5.724;2022-10-31T08:12:58;11.00;;;8.87;;
68921;SDS011;55959;51.244;5.724;2022-10-31T08:15:30;12.13;;;9.60;;
68921;SDS011;55959;51.244;5.724;2022-10-31T08:17:57;11.90;;;9.47;;
68921;SDS011;55959;51.244;5.724;2022-10-31T08:20:23;11.73;;;9.07;;
68921;SDS011;55959;51.244;5.724;2022-10-31T08:22:59;10.93;;;9.87;;
68921;SDS011;55959;51.244;5.724;2022-10-31T08:25:27;14.87;;;10.33;;
68921;SDS011;55959;51.244;5.724;2022-10-31T08:27:55;12.77;;;10.13;;
68921;SDS011;55959;51.244;5.724;2022-10-31T08:30:22;12.80;;;10.03;;
68921;SDS011;55959;51.244;5.724;2022-10-31T08:35:41;13.73;;;10.70;;
68921;SDS011;55959;51.244;5.724;2022-10-31T08:38:08;13.03;;;11.07;;
68921;SDS011;55959;51.244;5.724;2022-10-31T08:40:36;14.90;;;11.50;;
68921;SDS011;55959;51.244;5.724;2022-10-31T08:43:04;14.73;;;10.30;;
68921;SDS011;55959;51.244;5.724;2022-10-31T08:45:38;16.33;;;13.03;;
68921;SDS011;55959;51.244;5.724;2022-10-31T08:48:05;14.10;;;12.47;;
68921;SDS011;55959;51.244;5.724;2022-10-31T08:50:36;15.53;;;12.20;;
68921;SDS011;55959;51.244;5.724;2022-10-31T08:53:03;13.33;;;11.60;;
68921;SDS011;55959;51.244;5.724;2022-10-31T08:55:35;15.93;;;13.57;;
68921;SDS011;55959;51.244;5.724;2022-10-31T08:58:02;15.77;;;13.23;;
68921;SDS011;55959;51.244;5.724;2022-10-31T09:00:34;20.43;;;15.80;;
68921;SDS011;55959;51.244;5.724;2022-10-31T09:03:04;17.37;;;14.07;;
68921;SDS011;55959;51.244;5.724;2022-10-31T09:05:33;18.70;;;14.30;;
68921;SDS011;55959;51.244;5.724;2022-10-31T09:07:59;20.87;;;16.43;;
68921;SDS011;55959;51.244;5.724;2022-10-31T09:10:28;18.80;;;15.77;;
68921;SDS011;55959;51.244;5.724;2022-10-31T09:12:59;18.03;;;15.70;;
68921;SDS011;55959;51.244;5.724;2022-10-31T09:15:27;25.60;;;17.70;;
68921;SDS011;55959;51.244;5.724;2022-10-31T09:17:53;20.27;;;17.43;;
68921;SDS011;55959;51.244;5.724;2022-10-31T09:20:20;20.93;;;16.70;;
68921;SDS011;55959;51.244;5.724;2022-10-31T09:22:47;24.30;;;18.57;;
68921;SDS011;55959;51.244;5.724;2022-10-31T09:25:12;24.17;;;18.83;;
68921;SDS011;55959;51.244;5.724;2022-10-31T09:27:38;20.47;;;16.57;;
68921;SDS011;55959;51.244;5.724;2022-10-31T09:30:04;23.73;;;17.70;;
68921;SDS011;55959;51.244;5.724;2022-10-31T09:32:31;24.87;;;18.50;;
68921;SDS011;55959;51.244;5.724;2022-10-31T09:34:56;24.47;;;18.87;;
68921;SDS011;55959;51.244;5.724;2022-10-31T09:37:22;25.67;;;21.30;;
68921;SDS011;55959;51.244;5.724;2022-10-31T09:39:48;27.27;;;20.30;;
68921;SDS011;55959;51.244;5.724;2022-10-31T09:42:29;24.13;;;17.90;;
68921;SDS011;55959;51.244;5.724;2022-10-31T09:45:21;28.03;;;21.23;;
68921;SDS011;55959;51.244;5.724;2022-10-31T09:53:42;26.63;;;20.10;;
68921;SDS011;55959;51.244;5.724;2022-10-31T09:56:21;28.03;;;20.37;;
68921;SDS011;55959;51.244;5.724;2022-10-31T09:58:52;24.93;;;18.93;;
68921;SDS011;55959;51.244;5.724;2022-10-31T10:01:47;21.60;;;19.10;;
68921;SDS011;55959;51.244;5.724;2022-10-31T10:07:10;25.07;;;18.83;;
68921;SDS011;55959;51.244;5.724;2022-10-31T10:09:56;24.13;;;19.20;;
68921;SDS011;55959;51.244;5.724;2022-10-31T10:26:38;28.47;;;20.67;;
68921;SDS011;55959;51.244;5.724;2022-10-31T10:32:00;24.77;;;18.57;;
68921;SDS011;55959;51.244;5.724;2022-10-31T10:34:47;25.17;;;19.80;;
68921;SDS011;55959;51.244;5.724;2022-10-31T10:37:24;30.03;;;22.07;;
68921;SDS011;55959;51.244;5.724;2022-10-31T10:39:58;24.63;;;18.23;;
68921;SDS011;55959;51.244;5.724;2022-10-31T10:42:56;26.23;;;18.70;;
68921;SDS011;55959;51.244;5.724;2022-10-31T10:45:50;24.50;;;17.93;;
68921;SDS011;55959;51.244;5.724;2022-10-31T10:54:33;22.17;;;17.60;;
68921;SDS011;55959;51.244;5.724;2022-10-31T10:59:55;21.87;;;17.17;;
68921;SDS011;55959;51.244;5.724;2022-10-31T11:02:25;21.20;;;18.13;;
68921;SDS011;55959;51.244;5.724;2022-10-31T11:05:00;25.33;;;15.43;;
68921;SDS011;55959;51.244;5.724;2022-10-31T11:07:36;20.63;;;17.17;;
68921;SDS011;55959;51.244;5.724;2022-10-31T11:10:05;22.73;;;15.80;;
68921;SDS011;55959;51.244;5.724;2022-10-31T11:12:39;20.43;;;16.20;;
68921;SDS011;55959;51.244;5.724;2022-10-31T11:15:07;23.30;;;18.60;;
68921;SDS011;55959;51.244;5.724;2022-10-31T11:17:49;25.25;;;17.77;;
68921;SDS011;55959;51.244;5.724;2022-10-31T11:22:43;16.73;;;14.07;;
68921;SDS011;55959;51.244;5.724;2022-10-31T11:25:21;19.07;;;14.67;;
68921;SDS011;55959;51.244;5.724;2022-10-31T11:28:04;19.48;;;15.80;;
68921;SDS011;55959;51.244;5.724;2022-10-31T11:30:46;22.63;;;14.67;;
68921;SDS011;55959;51.244;5.724;2022-10-31T11:36:02;16.43;;;13.87;;
68921;SDS011;55959;51.244;5.724;2022-10-31T11:38:56;18.13;;;13.93;;
68921;SDS011;55959;51.244;5.724;2022-10-31T11:41:25;22.35;;;15.27;;
68921;SDS011;55959;51.244;5.724;2022-10-31T11:44:09;18.30;;;12.23;;
68921;SDS011;55959;51.244;5.724;2022-10-31T11:46:50;16.07;;;13.07;;
68921;SDS011;55959;51.244;5.724;2022-10-31T11:49:30;19.03;;;13.20;;
68921;SDS011;55959;51.244;5.724;2022-10-31T11:52:15;15.73;;;11.48;;
68921;SDS011;55959;51.244;5.724;2022-10-31T11:54:47;14.30;;;11.67;;
68921;SDS011;55959;51.244;5.724;2022-10-31T11:57:28;14.90;;;10.87;;
68921;SDS011;55959;51.244;5.724;2022-10-31T12:00:02;15.82;;;11.13;;
68921;SDS011;55959;51.244;5.724;2022-10-31T12:02:42;15.80;;;11.32;;
68921;SDS011;55959;51.244;5.724;2022-10-31T12:05:10;17.60;;;10.67;;
68921;SDS011;55959;51.244;5.724;2022-10-31T12:07:50;11.40;;;9.60;;
68921;SDS011;55959;51.244;5.724;2022-10-31T12:10:15;14.18;;;9.57;;
68921;SDS011;55959;51.244;5.724;2022-10-31T12:12:47;15.63;;;10.30;;
68921;SDS011;55959;51.244;5.724;2022-10-31T12:15:29;17.73;;;10.90;;
68921;SDS011;55959;51.244;5.724;2022-10-31T12:21:00;12.67;;;10.00;;
68921;SDS011;55959;51.244;5.724;2022-10-31T12:26:46;10.32;;;8.57;;
68921;SDS011;55959;51.244;5.724;2022-10-31T12:29:28;12.20;;;9.52;;
68921;SDS011;55959;51.244;5.724;2022-10-31T12:32:20;13.00;;;8.87;;
68921;SDS011;55959;51.244;5.724;2022-10-31T12:37:28;11.57;;;7.78;;
68921;SDS011;55959;51.244;5.724;2022-10-31T12:46:22;14.33;;;8.47;;
68921;SDS011;55959;51.244;5.724;2022-10-31T13:01:37;13.37;;;9.77;;
68921;SDS011;55959;51.244;5.724;2022-10-31T13:04:24;11.32;;;7.97;;
68921;SDS011;55959;51.244;5.724;2022-10-31T13:07:03;10.77;;;8.05;;
68921;SDS011;55959;51.244;5.724;2022-10-31T13:09:37;14.13;;;8.83;;
68921;SDS011;55959;51.244;5.724;2022-10-31T13:12:11;8.48;;;7.57;;
68921;SDS011;55959;51.244;5.724;2022-10-31T13:14:44;14.07;;;9.63;;
68921;SDS011;55959;51.244;5.724;2022-10-31T13:20:13;12.73;;;9.83;;
68921;SDS011;55959;51.244;5.724;2022-10-31T13:22:40;11.43;;;8.43;;
68921;SDS011;55959;51.244;5.724;2022-10-31T13:25:22;13.15;;;8.50;;
68921;SDS011;55959;51.244;5.724;2022-10-31T13:28:05;11.25;;;8.63;;
68921;SDS011;55959;51.244;5.724;2022-10-31T13:30:49;9.88;;;7.55;;
68921;SDS011;55959;51.244;5.724;2022-10-31T13:33:21;17.02;;;10.23;;
68921;SDS011;55959;51.244;5.724;2022-10-31T13:45:49;10.80;;;8.88;;
68921;SDS011;55959;51.244;5.724;2022-10-31T13:48:37;12.90;;;10.05;;
68921;SDS011;55959;51.244;5.724;2022-10-31T13:51:09;13.73;;;9.23;;
68921;SDS011;55959;51.244;5.724;2022-10-31T13:54:19;13.30;;;9.07;;
68921;SDS011;55959;51.244;5.724;2022-10-31T13:59:51;13.35;;;8.45;;
68921;SDS011;55959;51.244;5.724;2022-10-31T14:02:27;13.13;;;9.52;;
68921;SDS011;55959;51.244;5.724;2022-10-31T14:05:00;11.68;;;9.63;;
68921;SDS011;55959;51.244;5.724;2022-10-31T14:07:58;18.20;;;10.45;;
68921;SDS011;55959;51.244;5.724;2022-10-31T14:10:38;14.13;;;9.43;;
68921;SDS011;55959;51.244;5.724;2022-10-31T14:13:14;15.48;;;9.55;;
68921;SDS011;55959;51.244;5.724;2022-10-31T14:16:00;16.20;;;10.55;;
68921;SDS011;55959;51.244;5.724;2022-10-31T14:18:46;14.52;;;10.70;;
68921;SDS011;55959;51.244;5.724;2022-10-31T14:23:51;13.38;;;9.50;;
68921;SDS011;55959;51.244;5.724;2022-10-31T14:31:55;12.32;;;9.07;;
68921;SDS011;55959;51.244;5.724;2022-10-31T14:51:35;9.48;;;6.40;;
68921;SDS011;55959;51.244;5.724;2022-10-31T14:54:11;10.05;;;5.68;;
68921;SDS011;55959;51.244;5.724;2022-10-31T14:56:52;9.18;;;5.68;;
68921;SDS011;55959;51.244;5.724;2022-10-31T14:59:24;9.13;;;5.03;;
68921;SDS011;55959;51.244;5.724;2022-10-31T15:05:01;8.20;;;5.22;;
68921;SDS011;55959;51.244;5.724;2022-10-31T15:07:35;7.78;;;4.35;;
68921;SDS011;55959;51.244;5.724;2022-10-31T15:10:06;8.77;;;4.82;;
68921;SDS011;55959;51.244;5.724;2022-10-31T15:12:48;6.82;;;4.57;;
68921;SDS011;55959;51.244;5.724;2022-10-31T15:15:17;8.82;;;4.85;;
68921;SDS011;55959;51.244;5.724;2022-10-31T15:17:54;6.28;;;4.10;;
68921;SDS011;55959;51.244;5.724;2022-10-31T15:20:27;8.52;;;4.97;;
68921;SDS011;55959;51.244;5.724;2022-10-31T15:22:56;7.22;;;4.28;;
68921;SDS011;55959;51.244;5.724;2022-10-31T15:25:24;7.95;;;4.20;;
68921;SDS011;55959;51.244;5.724;2022-10-31T15:27:52;12.88;;;4.65;;
68921;SDS011;55959;51.244;5.724;2022-10-31T15:30:22;7.72;;;4.75;;
68921;SDS011;55959;51.244;5.724;2022-10-31T15:32:52;8.00;;;4.60;;
68921;SDS011;55959;51.244;5.724;2022-10-31T15:35:20;6.65;;;4.32;;
68921;SDS011;55959;51.244;5.724;2022-10-31T15:37:54;6.93;;;4.38;;
68921;SDS011;55959;51.244;5.724;2022-10-31T15:40:23;7.30;;;4.85;;
68921;SDS011;55959;51.244;5.724;2022-10-31T15:43:10;8.68;;;4.18;;
68921;SDS011;55959;51.244;5.724;2022-10-31T15:45:41;8.90;;;4.95;;
68921;SDS011;55959;51.244;5.724;2022-10-31T15:48:18;9.90;;;4.30;;
68921;SDS011;55959;51.244;5.724;2022-10-31T15:50:48;6.13;;;4.13;;
68921;SDS011;55959;51.244;5.724;2022-10-31T15:53:20;9.77;;;4.32;;
68921;SDS011;55959;51.244;5.724;2022-10-31T15:56:10;6.78;;;4.18;;
68921;SDS011;55959;51.244;5.724;2022-10-31T15:58:46;8.82;;;4.22;;
68921;SDS011;55959;51.244;5.724;2022-10-31T16:03:58;6.80;;;4.18;;
68921;SDS011;55959;51.244;5.724;2022-10-31T16:06:31;5.93;;;3.67;;
68921;SDS011;55959;51.244;5.724;2022-10-31T16:08:59;7.10;;;4.20;;
68921;SDS011;55959;51.244;5.724;2022-10-31T16:11:35;7.43;;;4.63;;
68921;SDS011;55959;51.244;5.724;2022-10-31T16:14:24;9.65;;;4.63;;
68921;SDS011;55959;51.244;5.724;2022-10-31T16:16:53;7.25;;;4.55;;
68921;SDS011;55959;51.244;5.724;2022-10-31T16:19:30;7.68;;;4.30;;
68921;SDS011;55959;51.244;5.724;2022-10-31T16:27:37;7.50;;;4.43;;
68921;SDS011;55959;51.244;5.724;2022-10-31T16:30:27;6.15;;;3.95;;
68921;SDS011;55959;51.244;5.724;2022-10-31T16:33:20;6.67;;;4.77;;
68921;SDS011;55959;51.244;5.724;2022-10-31T16:38:53;9.23;;;4.37;;
68921;SDS011;55959;51.244;5.724;2022-10-31T16:41:19;7.72;;;4.53;;
68921;SDS011;55959;51.244;5.724;2022-10-31T16:43:46;7.40;;;4.10;;
68921;SDS011;55959;51.244;5.724;2022-10-31T16:46:15;7.97;;;3.93;;
68921;SDS011;55959;51.244;5.724;2022-10-31T16:48:47;8.67;;;4.67;;
68921;SDS011;55959;51.244;5.724;2022-10-31T16:51:13;8.07;;;4.60;;
68921;SDS011;55959;51.244;5.724;2022-10-31T16:53:39;8.93;;;4.60;;
68921;SDS011;55959;51.244;5.724;2022-10-31T16:56:05;8.53;;;4.37;;
68921;SDS011;55959;51.244;5.724;2022-10-31T16:58:50;8.93;;;4.83;;
68921;SDS011;55959;51.244;5.724;2022-10-31T17:01:16;9.33;;;4.13;;
68921;SDS011;55959;51.244;5.724;2022-10-31T17:03:41;7.13;;;4.10;;
68921;SDS011;55959;51.244;5.724;2022-10-31T17:06:10;5.93;;;4.43;;
68921;SDS011;55959;51.244;5.724;2022-10-31T17:08:37;7.30;;;3.87;;
68921;SDS011;55959;51.244;5.724;2022-10-31T17:11:03;7.80;;;4.30;;
68921;SDS011;55959;51.244;5.724;2022-10-31T17:13:30;6.73;;;4.10;;
68921;SDS011;55959;51.244;5.724;2022-10-31T17:15:58;9.77;;;4.60;;
68921;SDS011;55959;51.244;5.724;2022-10-31T17:18:26;6.37;;;4.40;;
68921;SDS011;55959;51.244;5.724;2022-10-31T17:20:57;7.17;;;4.20;;
68921;SDS011;55959;51.244;5.724;2022-10-31T17:23:25;6.93;;;4.00;;
68921;SDS011;55959;51.244;5.724;2022-10-31T17:25:52;8.97;;;4.43;;
68921;SDS011;55959;51.244;5.724;2022-10-31T17:28:18;5.57;;;4.20;;
68921;SDS011;55959;51.244;5.724;2022-10-31T17:30:44;6.30;;;3.90;;
68921;SDS011;55959;51.244;5.724;2022-10-31T17:33:13;7.07;;;4.17;;
68921;SDS011;55959;51.244;5.724;2022-10-31T17:35:44;6.97;;;4.47;;
68921;SDS011;55959;51.244;5.724;2022-10-31T17:38:10;7.13;;;4.20;;
68921;SDS011;55959;51.244;5.724;2022-10-31T17:40:39;7.57;;;4.60;;
68921;SDS011;55959;51.244;5.724;2022-10-31T17:43:09;5.87;;;3.83;;
68921;SDS011;55959;51.244;5.724;2022-10-31T17:45:37;6.47;;;3.80;;